sensor_id;sensor_type;location;lat;lon;timestamp;P1;durP1;ratioP1;P2;durP2;ratioP2
434;SDS011;204;48.942;9.256;2023-06-14T00:00:40;7.27;;;5.50;;
434;SDS011;204;48.942;9.256;2023-06-14T00:03:06;6.70;;;4.43;;
434;SDS011;204;48.942;9.256;2023-06-14T00:05:34;6.07;;;5.10;;
434;SDS011;204;48.942;9.256;2023-06-14T00:08:06;5.85;;;5.55;;
434;SDS011;204;48.942;9.256;2023-06-14T00:10:33;6.70;;;5.65;;
434;SDS011;204;48.942;9.256;2023-06-14T00:13:00;5.93;;;5.57;;
434;SDS011;204;48.942;9.256;2023-06-14T00:15:27;16.27;;;7.25;;
434;SDS011;204;48.942;9.256;2023-06-14T00:17:53;21.30;;;7.32;;
434;SDS011;204;48.942;9.256;2023-06-14T00:20:19;9.13;;;6.22;;
434;SDS011;204;48.942;9.256;2023-06-14T00:22:46;10.02;;;5.93;;
434;SDS011;204;48.942;9.256;2023-06-14T00:25:13;7.20;;;5.70;;
434;SDS011;204;48.942;9.256;2023-06-14T00:27:38;10.60;;;6.10;;
434;SDS011;204;48.942;9.256;2023-06-14T00:30:04;6.57;;;6.17;;
434;SDS011;204;48.942;9.256;2023-06-14T00:32:30;11.73;;;6.77;;
434;SDS011;204;48.942;9.256;2023-06-14T00:34:55;10.50;;;5.63;;
434;SDS011;204;48.942;9.256;2023-06-14T00:37:21;9.73;;;6.03;;
434;SDS011;204;48.942;9.256;2023-06-14T00:39:47;6.90;;;6.40;;
434;SDS011;204;48.942;9.256;2023-06-14T00:42:22;5.60;;;5.30;;
434;SDS011;204;48.942;9.256;2023-06-14T00:44:51;6.93;;;5.72;;
434;SDS011;204;48.942;9.256;2023-06-14T00:47:17;11.50;;;6.40;;
434;SDS011;204;48.942;9.256;2023-06-14T00:49:45;5.75;;;5.13;;
434;SDS011;204;48.942;9.256;2023-06-14T00:52:13;6.57;;;4.72;;
434;SDS011;204;48.942;9.256;2023-06-14T00:54:42;10.65;;;5.82;;
434;SDS011;204;48.942;9.256;2023-06-14T00:57:09;11.27;;;6.30;;
434;SDS011;204;48.942;9.256;2023-06-14T00:59:45;8.13;;;5.10;;
434;SDS011;204;48.942;9.256;2023-06-14T01:02:14;20.75;;;7.50;;
434;SDS011;204;48.942;9.256;2023-06-14T01:04:41;11.52;;;6.03;;
434;SDS011;204;48.942;9.256;2023-06-14T01:10:06;18.70;;;5.78;;
434;SDS011;204;48.942;9.256;2023-06-14T01:15:36;7.53;;;4.57;;
434;SDS011;204;48.942;9.256;2023-06-14T01:18:03;6.47;;;6.05;;
434;SDS011;204;48.942;9.256;2023-06-14T01:20:30;7.80;;;5.63;;
434;SDS011;204;48.942;9.256;2023-06-14T01:22:57;13.10;;;6.53;;
434;SDS011;204;48.942;9.256;2023-06-14T01:25:23;13.70;;;5.88;;
434;SDS011;204;48.942;9.256;2023-06-14T01:27:51;5.60;;;5.30;;
434;SDS011;204;48.942;9.256;2023-06-14T01:30:22;6.50;;;5.75;;
434;SDS011;204;48.942;9.256;2023-06-14T01:32:50;9.70;;;6.00;;
434;SDS011;204;48.942;9.256;2023-06-14T01:35:17;7.22;;;6.05;;
434;SDS011;204;48.942;9.256;2023-06-14T01:37:47;5.93;;;5.63;;
434;SDS011;204;48.942;9.256;2023-06-14T01:40:14;8.73;;;6.10;;
434;SDS011;204;48.942;9.256;2023-06-14T01:42:40;5.80;;;5.53;;
434;SDS011;204;48.942;9.256;2023-06-14T01:45:06;6.25;;;5.10;;
434;SDS011;204;48.942;9.256;2023-06-14T01:47:33;6.10;;;5.80;;
434;SDS011;204;48.942;9.256;2023-06-14T01:50:00;6.47;;;5.70;;
434;SDS011;204;48.942;9.256;2023-06-14T01:52:26;6.32;;;5.97;;
434;SDS011;204;48.942;9.256;2023-06-14T01:54:52;6.20;;;5.90;;
434;SDS011;204;48.942;9.256;2023-06-14T01:57:17;6.53;;;6.13;;
434;SDS011;204;48.942;9.256;2023-06-14T01:59:43;6.20;;;5.43;;
434;SDS011;204;48.942;9.256;2023-06-14T02:02:13;9.50;;;6.03;;
434;SDS011;204;48.942;9.256;2023-06-14T02:04:39;6.60;;;5.85;;
434;SDS011;204;48.942;9.256;2023-06-14T02:07:05;6.27;;;5.93;;
434;SDS011;204;48.942;9.256;2023-06-14T02:09:31;6.27;;;5.83;;
434;SDS011;204;48.942;9.256;2023-06-14T02:11:56;6.07;;;5.77;;
434;SDS011;204;48.942;9.256;2023-06-14T02:14:22;5.80;;;5.27;;
434;SDS011;204;48.942;9.256;2023-06-14T02:16:48;7.37;;;6.50;;
434;SDS011;204;48.942;9.256;2023-06-14T02:19:17;8.20;;;6.63;;
434;SDS011;204;48.942;9.256;2023-06-14T02:21:43;6.47;;;6.07;;
434;SDS011;204;48.942;9.256;2023-06-14T02:24:10;7.15;;;6.75;;
434;SDS011;204;48.942;9.256;2023-06-14T02:26:35;6.90;;;6.50;;
434;SDS011;204;48.942;9.256;2023-06-14T02:29:03;6.05;;;5.75;;
434;SDS011;204;48.942;9.256;2023-06-14T02:31:30;6.10;;;5.80;;
434;SDS011;204;48.942;9.256;2023-06-14T02:33:56;7.27;;;6.87;;
434;SDS011;204;48.942;9.256;2023-06-14T02:36:21;8.00;;;6.50;;
434;SDS011;204;48.942;9.256;2023-06-14T02:38:47;5.93;;;5.63;;
434;SDS011;204;48.942;9.256;2023-06-14T02:41:12;6.50;;;6.10;;
434;SDS011;204;48.942;9.256;2023-06-14T02:43:38;6.93;;;5.70;;
434;SDS011;204;48.942;9.256;2023-06-14T02:46:04;7.10;;;6.50;;
434;SDS011;204;48.942;9.256;2023-06-14T02:48:29;6.80;;;6.40;;
434;SDS011;204;48.942;9.256;2023-06-14T02:50:55;6.53;;;6.13;;
434;SDS011;204;48.942;9.256;2023-06-14T02:53:21;12.10;;;6.38;;
434;SDS011;204;48.942;9.256;2023-06-14T02:55:47;5.83;;;5.60;;
434;SDS011;204;48.942;9.256;2023-06-14T02:58:13;6.77;;;6.37;;
434;SDS011;204;48.942;9.256;2023-06-14T03:00:39;6.73;;;6.33;;
434;SDS011;204;48.942;9.256;2023-06-14T03:03:05;8.30;;;7.18;;
434;SDS011;204;48.942;9.256;2023-06-14T03:05:38;8.52;;;6.55;;
434;SDS011;204;48.942;9.256;2023-06-14T03:08:11;10.20;;;7.30;;
434;SDS011;204;48.942;9.256;2023-06-14T03:10:41;7.70;;;6.53;;
434;SDS011;204;48.942;9.256;2023-06-14T03:13:08;8.05;;;7.18;;
434;SDS011;204;48.942;9.256;2023-06-14T03:15:34;6.53;;;6.13;;
434;SDS011;204;48.942;9.256;2023-06-14T03:18:00;6.53;;;6.13;;
434;SDS011;204;48.942;9.256;2023-06-14T03:20:26;7.20;;;6.80;;
434;SDS011;204;48.942;9.256;2023-06-14T03:22:54;7.47;;;6.50;;
434;SDS011;204;48.942;9.256;2023-06-14T03:25:19;7.50;;;7.10;;
434;SDS011;204;48.942;9.256;2023-06-14T03:27:46;7.03;;;6.63;;
434;SDS011;204;48.942;9.256;2023-06-14T03:30:12;7.70;;;7.23;;
434;SDS011;204;48.942;9.256;2023-06-14T03:32:38;11.90;;;7.30;;
434;SDS011;204;48.942;9.256;2023-06-14T03:35:04;8.13;;;7.73;;
434;SDS011;204;48.942;9.256;2023-06-14T03:37:30;7.88;;;7.47;;
434;SDS011;204;48.942;9.256;2023-06-14T03:39:55;8.20;;;6.83;;
434;SDS011;204;48.942;9.256;2023-06-14T03:42:21;8.00;;;6.97;;
434;SDS011;204;48.942;9.256;2023-06-14T03:44:47;8.10;;;7.70;;
434;SDS011;204;48.942;9.256;2023-06-14T03:47:12;13.37;;;6.80;;
434;SDS011;204;48.942;9.256;2023-06-14T03:49:38;7.10;;;6.70;;
434;SDS011;204;48.942;9.256;2023-06-14T03:52:04;7.20;;;6.80;;
434;SDS011;204;48.942;9.256;2023-06-14T03:54:30;7.70;;;6.93;;
434;SDS011;204;48.942;9.256;2023-06-14T03:56:57;7.38;;;6.55;;
434;SDS011;204;48.942;9.256;2023-06-14T03:59:23;9.20;;;7.07;;
434;SDS011;204;48.942;9.256;2023-06-14T04:01:49;7.07;;;6.67;;
434;SDS011;204;48.942;9.256;2023-06-14T04:04:15;10.93;;;6.80;;
434;SDS011;204;48.942;9.256;2023-06-14T04:06:43;7.13;;;5.97;;
434;SDS011;204;48.942;9.256;2023-06-14T04:09:09;9.27;;;6.77;;
434;SDS011;204;48.942;9.256;2023-06-14T04:11:34;10.07;;;6.73;;
434;SDS011;204;48.942;9.256;2023-06-14T04:14:01;7.23;;;6.83;;
434;SDS011;204;48.942;9.256;2023-06-14T04:16:26;7.40;;;6.97;;
434;SDS011;204;48.942;9.256;2023-06-14T04:18:54;7.67;;;6.07;;
434;SDS011;204;48.942;9.256;2023-06-14T04:21:20;7.28;;;5.85;;
434;SDS011;204;48.942;9.256;2023-06-14T04:23:46;10.60;;;7.23;;
434;SDS011;204;48.942;9.256;2023-06-14T04:26:11;7.27;;;6.87;;
434;SDS011;204;48.942;9.256;2023-06-14T04:28:37;8.60;;;7.30;;
434;SDS011;204;48.942;9.256;2023-06-14T04:31:06;8.67;;;7.17;;
434;SDS011;204;48.942;9.256;2023-06-14T04:33:34;9.47;;;7.30;;
434;SDS011;204;48.942;9.256;2023-06-14T04:36:07;6.97;;;6.53;;
434;SDS011;204;48.942;9.256;2023-06-14T04:38:34;8.07;;;7.67;;
434;SDS011;204;48.942;9.256;2023-06-14T04:41:00;13.13;;;12.43;;
434;SDS011;204;48.942;9.256;2023-06-14T04:43:26;13.87;;;12.60;;
434;SDS011;204;48.942;9.256;2023-06-14T04:45:52;16.63;;;14.93;;
434;SDS011;204;48.942;9.256;2023-06-14T04:48:21;14.77;;;14.00;;
434;SDS011;204;48.942;9.256;2023-06-14T04:50:47;12.23;;;11.43;;
434;SDS011;204;48.942;9.256;2023-06-14T04:53:13;14.30;;;10.20;;
434;SDS011;204;48.942;9.256;2023-06-14T04:55:38;11.50;;;10.90;;
434;SDS011;204;48.942;9.256;2023-06-14T04:58:09;10.97;;;10.37;;
434;SDS011;204;48.942;9.256;2023-06-14T05:00:37;10.20;;;9.70;;
434;SDS011;204;48.942;9.256;2023-06-14T05:03:03;9.30;;;8.80;;
434;SDS011;204;48.942;9.256;2023-06-14T05:05:30;10.90;;;10.17;;
434;SDS011;204;48.942;9.256;2023-06-14T05:07:56;9.57;;;9.07;;
434;SDS011;204;48.942;9.256;2023-06-14T05:10:22;9.83;;;9.33;;
434;SDS011;204;48.942;9.256;2023-06-14T05:12:49;10.43;;;9.60;;
434;SDS011;204;48.942;9.256;2023-06-14T05:15:15;8.37;;;7.93;;
434;SDS011;204;48.942;9.256;2023-06-14T05:17:41;9.93;;;8.60;;
434;SDS011;204;48.942;9.256;2023-06-14T05:20:07;8.20;;;7.60;;
434;SDS011;204;48.942;9.256;2023-06-14T05:22:35;8.20;;;7.80;;
434;SDS011;204;48.942;9.256;2023-06-14T05:25:00;9.63;;;8.27;;
434;SDS011;204;48.942;9.256;2023-06-14T05:27:30;10.00;;;8.57;;
434;SDS011;204;48.942;9.256;2023-06-14T05:29:55;10.03;;;7.73;;
434;SDS011;204;48.942;9.256;2023-06-14T05:32:23;8.10;;;7.70;;
434;SDS011;204;48.942;9.256;2023-06-14T05:34:49;18.13;;;9.90;;
434;SDS011;204;48.942;9.256;2023-06-14T05:37:15;13.77;;;8.47;;
434;SDS011;204;48.942;9.256;2023-06-14T05:39:40;10.90;;;8.30;;
434;SDS011;204;48.942;9.256;2023-06-14T05:42:06;8.90;;;8.30;;
434;SDS011;204;48.942;9.256;2023-06-14T05:44:32;15.60;;;8.13;;
434;SDS011;204;48.942;9.256;2023-06-14T05:46:58;11.23;;;8.20;;
434;SDS011;204;48.942;9.256;2023-06-14T05:49:23;9.93;;;7.93;;
434;SDS011;204;48.942;9.256;2023-06-14T05:51:49;7.17;;;6.53;;
434;SDS011;204;48.942;9.256;2023-06-14T05:54:14;7.13;;;6.00;;
434;SDS011;204;48.942;9.256;2023-06-14T05:56:40;10.70;;;6.20;;
434;SDS011;204;48.942;9.256;2023-06-14T05:59:05;5.97;;;5.50;;
434;SDS011;204;48.942;9.256;2023-06-14T06:01:31;6.10;;;5.00;;
434;SDS011;204;48.942;9.256;2023-06-14T06:04:01;5.40;;;5.10;;
434;SDS011;204;48.942;9.256;2023-06-14T06:06:26;10.37;;;6.33;;
434;SDS011;204;48.942;9.256;2023-06-14T06:08:52;7.87;;;6.70;;
434;SDS011;204;48.942;9.256;2023-06-14T06:11:17;6.53;;;6.13;;
434;SDS011;204;48.942;9.256;2023-06-14T06:13:43;5.97;;;4.87;;
434;SDS011;204;48.942;9.256;2023-06-14T06:16:11;6.60;;;5.90;;
434;SDS011;204;48.942;9.256;2023-06-14T06:18:36;7.37;;;5.77;;
434;SDS011;204;48.942;9.256;2023-06-14T06:21:03;5.80;;;5.50;;
434;SDS011;204;48.942;9.256;2023-06-14T06:23:29;7.73;;;5.17;;
434;SDS011;204;48.942;9.256;2023-06-14T06:25:57;5.87;;;5.40;;
434;SDS011;204;48.942;9.256;2023-06-14T06:28:23;8.00;;;5.90;;
434;SDS011;204;48.942;9.256;2023-06-14T06:30:48;7.90;;;5.63;;
434;SDS011;204;48.942;9.256;2023-06-14T06:33:15;6.20;;;5.50;;
434;SDS011;204;48.942;9.256;2023-06-14T06:35:41;6.00;;;4.60;;
434;SDS011;204;48.942;9.256;2023-06-14T06:38:06;6.87;;;5.80;;
434;SDS011;204;48.942;9.256;2023-06-14T06:40:33;6.33;;;4.57;;
434;SDS011;204;48.942;9.256;2023-06-14T06:42:59;5.70;;;5.03;;
434;SDS011;204;48.942;9.256;2023-06-14T06:45:25;6.67;;;5.50;;
434;SDS011;204;48.942;9.256;2023-06-14T06:47:51;5.77;;;5.50;;
434;SDS011;204;48.942;9.256;2023-06-14T06:50:17;5.80;;;5.50;;
434;SDS011;204;48.942;9.256;2023-06-14T06:52:43;5.63;;;5.33;;
434;SDS011;204;48.942;9.256;2023-06-14T06:55:10;5.77;;;4.87;;
434;SDS011;204;48.942;9.256;2023-06-14T06:57:36;7.33;;;4.53;;
434;SDS011;204;48.942;9.256;2023-06-14T07:00:02;7.13;;;6.00;;
434;SDS011;204;48.942;9.256;2023-06-14T07:02:30;5.60;;;5.30;;
434;SDS011;204;48.942;9.256;2023-06-14T07:04:56;5.93;;;5.63;;
434;SDS011;204;48.942;9.256;2023-06-14T07:07:25;8.00;;;6.97;;
434;SDS011;204;48.942;9.256;2023-06-14T07:09:50;7.50;;;4.83;;
434;SDS011;204;48.942;9.256;2023-06-14T07:12:19;9.23;;;6.67;;
434;SDS011;204;48.942;9.256;2023-06-14T07:14:45;11.60;;;6.53;;
434;SDS011;204;48.942;9.256;2023-06-14T07:17:13;8.73;;;6.10;;
434;SDS011;204;48.942;9.256;2023-06-14T07:19:39;7.77;;;6.80;;
434;SDS011;204;48.942;9.256;2023-06-14T07:22:04;6.90;;;6.50;;
434;SDS011;204;48.942;9.256;2023-06-14T07:24:30;8.37;;;6.80;;
434;SDS011;204;48.942;9.256;2023-06-14T07:26:55;14.53;;;11.03;;
434;SDS011;204;48.942;9.256;2023-06-14T07:29:21;8.23;;;7.80;;
434;SDS011;204;48.942;9.256;2023-06-14T07:31:47;8.47;;;7.20;;
434;SDS011;204;48.942;9.256;2023-06-14T07:34:12;7.50;;;7.10;;
434;SDS011;204;48.942;9.256;2023-06-14T07:36:38;7.77;;;6.33;;
434;SDS011;204;48.942;9.256;2023-06-14T07:39:04;6.83;;;5.97;;
434;SDS011;204;48.942;9.256;2023-06-14T07:41:31;5.50;;;5.20;;
434;SDS011;204;48.942;9.256;2023-06-14T07:43:57;11.50;;;10.77;;
434;SDS011;204;48.942;9.256;2023-06-14T07:46:23;7.53;;;6.80;;
434;SDS011;204;48.942;9.256;2023-06-14T07:48:48;13.67;;;12.97;;
434;SDS011;204;48.942;9.256;2023-06-14T07:51:14;6.37;;;6.00;;
434;SDS011;204;48.942;9.256;2023-06-14T07:53:40;8.33;;;7.90;;
434;SDS011;204;48.942;9.256;2023-06-14T07:56:07;7.67;;;7.27;;
434;SDS011;204;48.942;9.256;2023-06-14T07:58:32;15.90;;;15.10;;
434;SDS011;204;48.942;9.256;2023-06-14T08:00:58;11.13;;;10.53;;
434;SDS011;204;48.942;9.256;2023-06-14T08:03:25;8.10;;;7.70;;
434;SDS011;204;48.942;9.256;2023-06-14T08:05:51;7.53;;;5.77;;
434;SDS011;204;48.942;9.256;2023-06-14T08:08:17;13.23;;;9.93;;
434;SDS011;204;48.942;9.256;2023-06-14T08:10:42;10.70;;;10.13;;
434;SDS011;204;48.942;9.256;2023-06-14T08:13:10;10.27;;;8.60;;
434;SDS011;204;48.942;9.256;2023-06-14T08:15:36;6.30;;;5.77;;
434;SDS011;204;48.942;9.256;2023-06-14T08:18:01;10.70;;;8.70;;
434;SDS011;204;48.942;9.256;2023-06-14T08:20:27;6.87;;;6.47;;
434;SDS011;204;48.942;9.256;2023-06-14T08:22:52;8.93;;;6.57;;
434;SDS011;204;48.942;9.256;2023-06-14T08:25:21;6.53;;;5.60;;
434;SDS011;204;48.942;9.256;2023-06-14T08:27:47;6.47;;;6.07;;
434;SDS011;204;48.942;9.256;2023-06-14T08:30:15;8.07;;;7.40;;
434;SDS011;204;48.942;9.256;2023-06-14T08:32:42;6.47;;;6.07;;
434;SDS011;204;48.942;9.256;2023-06-14T08:35:08;7.10;;;5.93;;
434;SDS011;204;48.942;9.256;2023-06-14T08:37:37;7.37;;;5.30;;
434;SDS011;204;48.942;9.256;2023-06-14T08:40:05;10.40;;;7.80;;
434;SDS011;204;48.942;9.256;2023-06-14T08:42:53;6.80;;;6.40;;
434;SDS011;204;48.942;9.256;2023-06-14T08:45:23;6.33;;;6.00;;
434;SDS011;204;48.942;9.256;2023-06-14T08:47:50;6.63;;;6.23;;
434;SDS011;204;48.942;9.256;2023-06-14T08:50:26;5.80;;;5.43;;
434;SDS011;204;48.942;9.256;2023-06-14T08:52:55;5.67;;;5.37;;
434;SDS011;204;48.942;9.256;2023-06-14T08:55:25;6.20;;;5.90;;
434;SDS011;204;48.942;9.256;2023-06-14T08:57:56;6.73;;;6.33;;
434;SDS011;204;48.942;9.256;2023-06-14T09:00:23;5.80;;;5.20;;
434;SDS011;204;48.942;9.256;2023-06-14T09:02:50;6.00;;;5.47;;
434;SDS011;204;48.942;9.256;2023-06-14T09:05:20;5.87;;;5.57;;
434;SDS011;204;48.942;9.256;2023-06-14T09:07:48;6.40;;;5.40;;
434;SDS011;204;48.942;9.256;2023-06-14T09:10:15;5.77;;;5.07;;
434;SDS011;204;48.942;9.256;2023-06-14T09:12:41;7.90;;;4.70;;
434;SDS011;204;48.942;9.256;2023-06-14T09:15:10;4.30;;;4.00;;
434;SDS011;204;48.942;9.256;2023-06-14T09:17:36;6.10;;;4.30;;
434;SDS011;204;48.942;9.256;2023-06-14T09:20:05;7.23;;;4.80;;
434;SDS011;204;48.942;9.256;2023-06-14T09:22:36;5.97;;;4.47;;
434;SDS011;204;48.942;9.256;2023-06-14T09:25:03;5.57;;;5.10;;
434;SDS011;204;48.942;9.256;2023-06-14T09:27:30;7.50;;;5.20;;
434;SDS011;204;48.942;9.256;2023-06-14T09:29:56;4.67;;;4.10;;
434;SDS011;204;48.942;9.256;2023-06-14T09:32:22;5.03;;;4.73;;
434;SDS011;204;48.942;9.256;2023-06-14T09:34:50;6.90;;;4.97;;
434;SDS011;204;48.942;9.256;2023-06-14T09:39:55;4.03;;;3.87;;
434;SDS011;204;48.942;9.256;2023-06-14T09:42:22;6.63;;;4.67;;
434;SDS011;204;48.942;9.256;2023-06-14T09:44:50;5.00;;;4.70;;
434;SDS011;204;48.942;9.256;2023-06-14T09:47:20;7.87;;;4.80;;
434;SDS011;204;48.942;9.256;2023-06-14T09:49:47;4.60;;;4.33;;
434;SDS011;204;48.942;9.256;2023-06-14T09:52:14;5.07;;;4.67;;
434;SDS011;204;48.942;9.256;2023-06-14T09:54:42;5.37;;;4.80;;
434;SDS011;204;48.942;9.256;2023-06-14T09:57:10;3.93;;;3.67;;
434;SDS011;204;48.942;9.256;2023-06-14T09:59:45;5.97;;;4.60;;
434;SDS011;204;48.942;9.256;2023-06-14T10:02:24;4.80;;;4.50;;
434;SDS011;204;48.942;9.256;2023-06-14T10:05:00;6.80;;;4.33;;
434;SDS011;204;48.942;9.256;2023-06-14T10:07:30;4.83;;;4.53;;
434;SDS011;204;48.942;9.256;2023-06-14T10:10:04;5.30;;;4.53;;
434;SDS011;204;48.942;9.256;2023-06-14T10:12:30;8.50;;;5.00;;
434;SDS011;204;48.942;9.256;2023-06-14T10:14:56;4.70;;;4.40;;
434;SDS011;204;48.942;9.256;2023-06-14T10:19:55;5.10;;;4.30;;
434;SDS011;204;48.942;9.256;2023-06-14T10:22:35;5.33;;;4.50;;
434;SDS011;204;48.942;9.256;2023-06-14T10:25:12;4.63;;;4.33;;
434;SDS011;204;48.942;9.256;2023-06-14T10:27:38;4.33;;;4.03;;
434;SDS011;204;48.942;9.256;2023-06-14T10:30:05;4.33;;;3.90;;
434;SDS011;204;48.942;9.256;2023-06-14T10:32:32;3.90;;;3.67;;
434;SDS011;204;48.942;9.256;2023-06-14T10:34:59;6.37;;;4.80;;
434;SDS011;204;48.942;9.256;2023-06-14T10:37:26;6.87;;;4.43;;
434;SDS011;204;48.942;9.256;2023-06-14T10:39:52;4.17;;;3.93;;
434;SDS011;204;48.942;9.256;2023-06-14T10:42:18;4.77;;;4.47;;
434;SDS011;204;48.942;9.256;2023-06-14T10:47:26;6.17;;;4.00;;
434;SDS011;204;48.942;9.256;2023-06-14T10:50:07;7.27;;;4.47;;
434;SDS011;204;48.942;9.256;2023-06-14T10:52:37;4.47;;;4.13;;
434;SDS011;204;48.942;9.256;2023-06-14T10:55:05;5.40;;;4.00;;
434;SDS011;204;48.942;9.256;2023-06-14T10:57:47;6.30;;;4.57;;
434;SDS011;204;48.942;9.256;2023-06-14T11:00:22;5.47;;;4.10;;
434;SDS011;204;48.942;9.256;2023-06-14T11:05:25;5.37;;;3.60;;
434;SDS011;204;48.942;9.256;2023-06-14T11:10:32;4.90;;;3.97;;
434;SDS011;204;48.942;9.256;2023-06-14T11:13:04;3.80;;;3.60;;
434;SDS011;204;48.942;9.256;2023-06-14T11:15:32;4.23;;;3.27;;
434;SDS011;204;48.942;9.256;2023-06-14T11:18:05;4.40;;;3.97;;
434;SDS011;204;48.942;9.256;2023-06-14T11:20:32;6.50;;;4.23;;
434;SDS011;204;48.942;9.256;2023-06-14T11:22:59;4.23;;;3.97;;
434;SDS011;204;48.942;9.256;2023-06-14T11:25:25;6.10;;;4.47;;
434;SDS011;204;48.942;9.256;2023-06-14T11:27:53;4.53;;;3.37;;
434;SDS011;204;48.942;9.256;2023-06-14T11:30:19;3.63;;;3.43;;
434;SDS011;204;48.942;9.256;2023-06-14T11:32:48;4.27;;;3.57;;
434;SDS011;204;48.942;9.256;2023-06-14T11:35:15;8.07;;;4.33;;
434;SDS011;204;48.942;9.256;2023-06-14T11:37:42;4.07;;;3.87;;
434;SDS011;204;48.942;9.256;2023-06-14T11:40:09;5.20;;;4.40;;
434;SDS011;204;48.942;9.256;2023-06-14T11:42:37;4.53;;;3.40;;
434;SDS011;204;48.942;9.256;2023-06-14T11:45:03;8.43;;;3.80;;
434;SDS011;204;48.942;9.256;2023-06-14T11:47:32;8.37;;;4.57;;
434;SDS011;204;48.942;9.256;2023-06-14T11:50:01;12.60;;;6.87;;
434;SDS011;204;48.942;9.256;2023-06-14T11:52:31;5.53;;;3.70;;
434;SDS011;204;48.942;9.256;2023-06-14T11:54:57;6.97;;;3.90;;
434;SDS011;204;48.942;9.256;2023-06-14T11:57:23;8.90;;;4.40;;
434;SDS011;204;48.942;9.256;2023-06-14T11:59:50;4.70;;;3.80;;
434;SDS011;204;48.942;9.256;2023-06-14T12:02:16;9.83;;;4.13;;
434;SDS011;204;48.942;9.256;2023-06-14T12:04:42;3.57;;;3.37;;
434;SDS011;204;48.942;9.256;2023-06-14T12:07:09;6.00;;;4.30;;
434;SDS011;204;48.942;9.256;2023-06-14T12:10:25;4.43;;;4.13;;
434;SDS011;204;48.942;9.256;2023-06-14T12:12:26;5.80;;;4.03;;
434;SDS011;204;48.942;9.256;2023-06-14T12:14:52;10.43;;;4.47;;
434;SDS011;204;48.942;9.256;2023-06-14T12:17:20;4.60;;;3.67;;
434;SDS011;204;48.942;9.256;2023-06-14T12:19:46;4.43;;;4.13;;
434;SDS011;204;48.942;9.256;2023-06-14T12:22:14;7.03;;;4.40;;
434;SDS011;204;48.942;9.256;2023-06-14T12:24:44;4.43;;;4.13;;
434;SDS011;204;48.942;9.256;2023-06-14T12:27:10;5.40;;;4.30;;
434;SDS011;204;48.942;9.256;2023-06-14T12:29:41;4.20;;;3.80;;
434;SDS011;204;48.942;9.256;2023-06-14T12:32:10;4.47;;;4.20;;
434;SDS011;204;48.942;9.256;2023-06-14T12:34:36;5.57;;;4.40;;
434;SDS011;204;48.942;9.256;2023-06-14T12:37:02;4.60;;;3.93;;
434;SDS011;204;48.942;9.256;2023-06-14T12:39:31;8.57;;;5.33;;
434;SDS011;204;48.942;9.256;2023-06-14T12:41:57;7.30;;;5.30;;
434;SDS011;204;48.942;9.256;2023-06-14T12:44:23;5.13;;;4.40;;
434;SDS011;204;48.942;9.256;2023-06-14T12:46:48;4.70;;;4.13;;
434;SDS011;204;48.942;9.256;2023-06-14T12:49:16;4.50;;;4.20;;
434;SDS011;204;48.942;9.256;2023-06-14T12:51:42;7.43;;;3.73;;
434;SDS011;204;48.942;9.256;2023-06-14T12:54:07;7.50;;;4.40;;
434;SDS011;204;48.942;9.256;2023-06-14T12:56:33;4.37;;;4.07;;
434;SDS011;204;48.942;9.256;2023-06-14T12:58:59;4.50;;;4.20;;
434;SDS011;204;48.942;9.256;2023-06-14T13:01:25;4.97;;;4.10;;
434;SDS011;204;48.942;9.256;2023-06-14T13:03:50;4.53;;;4.13;;
434;SDS011;204;48.942;9.256;2023-06-14T13:06:20;5.03;;;4.00;;
434;SDS011;204;48.942;9.256;2023-06-14T13:08:46;4.50;;;4.20;;
434;SDS011;204;48.942;9.256;2023-06-14T13:11:12;5.07;;;3.77;;
434;SDS011;204;48.942;9.256;2023-06-14T13:13:37;4.10;;;3.90;;
434;SDS011;204;48.942;9.256;2023-06-14T13:16:03;4.50;;;4.20;;
434;SDS011;204;48.942;9.256;2023-06-14T13:18:28;4.80;;;4.50;;
434;SDS011;204;48.942;9.256;2023-06-14T13:20:54;6.60;;;4.40;;
434;SDS011;204;48.942;9.256;2023-06-14T13:23:20;4.47;;;4.17;;
434;SDS011;204;48.942;9.256;2023-06-14T13:25:45;4.30;;;4.00;;
434;SDS011;204;48.942;9.256;2023-06-14T13:28:11;4.40;;;4.10;;
434;SDS011;204;48.942;9.256;2023-06-14T13:30:37;5.60;;;4.30;;
434;SDS011;204;48.942;9.256;2023-06-14T13:33:02;4.80;;;4.50;;
434;SDS011;204;48.942;9.256;2023-06-14T13:35:28;5.30;;;4.07;;
434;SDS011;204;48.942;9.256;2023-06-14T13:37:54;4.67;;;4.37;;
434;SDS011;204;48.942;9.256;2023-06-14T13:40:19;4.63;;;4.33;;
434;SDS011;204;48.942;9.256;2023-06-14T13:42:45;4.30;;;4.00;;
434;SDS011;204;48.942;9.256;2023-06-14T13:45:11;4.80;;;4.50;;
434;SDS011;204;48.942;9.256;2023-06-14T13:47:38;9.20;;;4.20;;
434;SDS011;204;48.942;9.256;2023-06-14T13:50:04;5.67;;;3.80;;
434;SDS011;204;48.942;9.256;2023-06-14T13:52:30;3.80;;;3.60;;
434;SDS011;204;48.942;9.256;2023-06-14T13:54:56;4.60;;;4.30;;
434;SDS011;204;48.942;9.256;2023-06-14T13:57:22;3.87;;;3.67;;
434;SDS011;204;48.942;9.256;2023-06-14T13:59:48;4.83;;;4.00;;
434;SDS011;204;48.942;9.256;2023-06-14T14:02:14;6.00;;;3.73;;
434;SDS011;204;48.942;9.256;2023-06-14T14:04:40;4.30;;;4.00;;
434;SDS011;204;48.942;9.256;2023-06-14T14:07:06;3.90;;;3.70;;
434;SDS011;204;48.942;9.256;2023-06-14T14:09:33;4.10;;;3.90;;
434;SDS011;204;48.942;9.256;2023-06-14T14:12:02;3.53;;;3.33;;
434;SDS011;204;48.942;9.256;2023-06-14T14:14:29;4.13;;;3.80;;
434;SDS011;204;48.942;9.256;2023-06-14T14:16:55;5.20;;;3.63;;
434;SDS011;204;48.942;9.256;2023-06-14T14:19:21;5.10;;;3.47;;
434;SDS011;204;48.942;9.256;2023-06-14T14:21:47;7.37;;;3.93;;
434;SDS011;204;48.942;9.256;2023-06-14T14:24:13;3.97;;;3.77;;
434;SDS011;204;48.942;9.256;2023-06-14T14:26:39;4.23;;;3.87;;
434;SDS011;204;48.942;9.256;2023-06-14T14:29:04;4.40;;;4.10;;
434;SDS011;204;48.942;9.256;2023-06-14T14:31:31;4.13;;;3.80;;
434;SDS011;204;48.942;9.256;2023-06-14T14:33:57;3.90;;;3.23;;
434;SDS011;204;48.942;9.256;2023-06-14T14:36:23;3.70;;;3.47;;
434;SDS011;204;48.942;9.256;2023-06-14T14:38:48;4.03;;;3.83;;
434;SDS011;204;48.942;9.256;2023-06-14T14:41:16;3.47;;;3.27;;
434;SDS011;204;48.942;9.256;2023-06-14T14:43:42;5.30;;;4.23;;
434;SDS011;204;48.942;9.256;2023-06-14T14:46:07;4.10;;;3.90;;
434;SDS011;204;48.942;9.256;2023-06-14T14:48:33;5.27;;;4.00;;
434;SDS011;204;48.942;9.256;2023-06-14T14:50:59;4.10;;;3.80;;
434;SDS011;204;48.942;9.256;2023-06-14T14:53:24;4.17;;;3.93;;
434;SDS011;204;48.942;9.256;2023-06-14T14:55:50;3.90;;;3.53;;
434;SDS011;204;48.942;9.256;2023-06-14T14:58:15;7.33;;;4.10;;
434;SDS011;204;48.942;9.256;2023-06-14T15:00:43;4.70;;;3.90;;
434;SDS011;204;48.942;9.256;2023-06-14T15:03:09;4.40;;;3.70;;
434;SDS011;204;48.942;9.256;2023-06-14T15:05:35;4.03;;;3.90;;
434;SDS011;204;48.942;9.256;2023-06-14T15:08:02;4.53;;;4.27;;
434;SDS011;204;48.942;9.256;2023-06-14T15:10:27;6.17;;;4.50;;
434;SDS011;204;48.942;9.256;2023-06-14T15:12:53;3.93;;;3.77;;
434;SDS011;204;48.942;9.256;2023-06-14T15:15:19;4.93;;;4.10;;
434;SDS011;204;48.942;9.256;2023-06-14T15:17:44;4.03;;;3.83;;
434;SDS011;204;48.942;9.256;2023-06-14T15:20:10;5.47;;;4.00;;
434;SDS011;204;48.942;9.256;2023-06-14T15:22:37;4.87;;;4.57;;
434;SDS011;204;48.942;9.256;2023-06-14T15:25:03;3.87;;;3.70;;
434;SDS011;204;48.942;9.256;2023-06-14T15:27:29;6.43;;;3.93;;
434;SDS011;204;48.942;9.256;2023-06-14T15:29:54;3.47;;;3.27;;
434;SDS011;204;48.942;9.256;2023-06-14T15:32:20;4.53;;;4.10;;
434;SDS011;204;48.942;9.256;2023-06-14T15:34:46;3.83;;;3.63;;
434;SDS011;204;48.942;9.256;2023-06-14T15:37:12;4.50;;;4.20;;
434;SDS011;204;48.942;9.256;2023-06-14T15:39:38;5.27;;;3.60;;
434;SDS011;204;48.942;9.256;2023-06-14T15:42:04;3.80;;;3.63;;
434;SDS011;204;48.942;9.256;2023-06-14T15:44:31;3.80;;;3.60;;
434;SDS011;204;48.942;9.256;2023-06-14T15:46:56;3.87;;;3.67;;
434;SDS011;204;48.942;9.256;2023-06-14T15:49:22;3.53;;;3.33;;
434;SDS011;204;48.942;9.256;2023-06-14T15:51:47;5.00;;;3.90;;
434;SDS011;204;48.942;9.256;2023-06-14T15:54:13;5.87;;;3.93;;
434;SDS011;204;48.942;9.256;2023-06-14T15:56:39;4.40;;;4.10;;
434;SDS011;204;48.942;9.256;2023-06-14T15:59:05;4.33;;;3.50;;